Time;durP1;ratioP1;P1;durP2;ratioP2;P2;SDS_P1;SDS_P2;PMS_P1;PMS_P2;Temp;Humidity;BMP_temperature;BMP_pressure;BME280_temperature;BME280_humidity;BME280_pressure;Samples;Min_cycle;Max_cycle;Signal;HPM_P1;HPM_P2
2022/01/25 00:08:18;;;;;;;;;;;-11.80;99.90;;;;;;4157511;28;19917;-57
2022/01/25 00:24:30;;;;;;;;;;;-11.90;99.90;;;;;;4160917;28;19921;-60
2022/01/25 00:26:38;;;;;;;;;;;-11.90;99.90;;;;;;4146904;28;20674;-56
2022/01/25 00:28:45;;;;;;;;;;;-12.00;99.90;;;;;;4160682;28;19909;-55
2022/01/25 00:31:01;;;;;;;;;;;-12.00;99.90;;;;;;4159321;28;19964;-53
2022/01/25 00:33:02;;;;;;;;;;;-12.10;99.90;;;;;;4160735;28;20419;-55
2022/01/25 00:35:03;;;;;;;;;;;-12.10;99.90;;;;;;4159855;28;19921;-58
2022/01/25 00:37:04;;;;;;;;;;;-12.20;99.90;;;;;;4159791;28;19920;-54
2022/01/25 00:39:05;;;;;;;;;;;-12.30;99.90;;;;;;4159721;28;19963;-57
2022/01/25 00:41:06;;;;;;;;;;;-12.40;99.90;;;;;;4160679;28;19913;-56
2022/01/25 00:43:07;;;;;;;;;;;-12.50;99.90;;;;;;4159853;28;20628;-56
2022/01/25 00:45:10;;;;;;;;;;;-12.60;99.90;;;;;;4159533;28;19925;-56
2022/01/25 00:47:11;;;;;;;;;;;-12.70;99.90;;;;;;4159976;28;20765;-56
2022/01/25 00:49:20;;;;;;;;;;;-12.90;99.90;;;;;;4160093;28;20439;-57
2022/01/25 00:55:49;;;;;;;;;;;-13.00;99.90;;;;;;4160239;28;19975;-55
2022/01/25 00:57:50;;;;;;;;;;;-13.00;99.90;;;;;;4159553;28;19913;-54
2022/01/25 00:59:51;;;;;;;;;;;-13.00;99.90;;;;;;4159595;28;19917;-55
2022/01/25 01:01:53;;;;;;;;;;;-13.00;99.90;;;;;;4159552;28;19944;-55
2022/01/25 01:03:54;;;;;;;;;;;-12.90;99.90;;;;;;4160279;28;19936;-52
2022/01/25 01:05:55;;;;;;;;;;;-12.90;99.90;;;;;;4159107;28;19921;-50
2022/01/25 01:07:56;;;;;;;;;;;-12.90;99.90;;;;;;4142779;28;20000;-55
2022/01/25 01:09:59;;;;;;;;;;;-13.00;99.90;;;;;;4159536;28;19963;-57
2022/01/25 01:12:09;;;;;;;;;;;-13.00;99.90;;;;;;4160127;28;19978;-57
2022/01/25 01:43:39;;;;;;;;;;;-12.80;99.90;;;;;;4125121;28;19963;-53
2022/01/25 01:45:49;;;;;;;;;;;-12.70;99.90;;;;;;4158399;28;20862;-54
2022/01/25 01:47:51;;;;;;;;;;;-12.70;99.90;;;;;;4158301;28;19959;-51
2022/01/25 01:49:52;;;;;;;;;;;-12.70;99.90;;;;;;4158648;28;19986;-53
2022/01/25 01:51:53;;;;;;;;;;;-12.70;99.90;;;;;;4159485;28;19913;-51
2022/01/25 01:54:20;;;;;;;;;;;-12.60;99.90;;;;;;4158335;28;19987;-52
2022/01/25 01:56:22;;;;;;;;;;;-12.50;99.90;;;;;;4155646;28;19909;-56
2022/01/25 01:58:24;;;;;;;;;;;-12.50;99.90;;;;;;4158440;28;19917;-56
2022/01/25 02:00:30;;;;;;;;;;;-12.40;99.90;;;;;;4159717;28;20320;-52
2022/01/25 02:02:31;;;;;;;;;;;-12.40;99.90;;;;;;4158552;28;19967;-54
2022/01/25 02:04:32;;;;;;;;;;;-12.30;99.90;;;;;;4159828;28;20281;-54
2022/01/25 02:06:33;;;;;;;;;;;-12.30;99.90;;;;;;4158292;28;19924;-55
2022/01/25 02:08:34;;;;;;;;;;;-12.20;99.90;;;;;;4158816;28;19987;-51
2022/01/25 02:10:35;;;;;;;;;;;-12.20;99.90;;;;;;4158277;28;20004;-53
2022/01/25 02:12:36;;;;;;;;;;;-12.10;99.90;;;;;;4159586;28;20320;-52
2022/01/25 02:14:40;;;;;;;;;;;-12.10;99.90;;;;;;4157951;28;19921;-53
2022/01/25 02:23:30;;;;;;;;;;;-12.10;99.90;;;;;;4141825;28;19960;-53
2022/01/25 02:25:31;;;;;;;;;;;-12.10;99.90;;;;;;4142993;28;19910;-52
2022/01/25 02:27:32;;;;;;;;;;;-12.20;99.90;;;;;;4142223;28;20361;-53
2022/01/25 02:29:33;;;;;;;;;;;-12.20;99.90;;;;;;4158963;28;19913;-55
2022/01/25 02:31:33;;;;;;;;;;;-12.30;99.90;;;;;;4158113;28;19913;-54
2022/01/25 02:33:35;;;;;;;;;;;-12.30;99.90;;;;;;4158753;28;19917;-57
2022/01/25 02:35:36;;;;;;;;;;;-12.40;99.90;;;;;;4158231;28;19921;-54
2022/01/25 02:37:38;;;;;;;;;;;-12.50;99.90;;;;;;4158108;28;19971;-52
2022/01/25 02:39:41;;;;;;;;;;;-12.60;99.90;;;;;;4158372;28;20428;-56
2022/01/25 02:41:43;;;;;;;;;;;-12.80;99.90;;;;;;4157184;28;19971;-55
2022/01/25 02:43:46;;;;;;;;;;;-12.80;99.90;;;;;;4158374;28;19913;-54
2022/01/25 02:46:03;;;;;;;;;;;-12.80;99.90;;;;;;4157619;28;20834;-54
2022/01/25 02:50:24;;;;;;;;;;;-12.90;99.90;;;;;;4158157;28;19983;-51
2022/01/25 02:52:25;;;;;;;;;;;-12.90;99.90;;;;;;4158060;28;19921;-56
2022/01/25 02:54:26;;;;;;;;;;;-12.80;99.90;;;;;;4156382;28;20340;-56
2022/01/25 02:56:27;;;;;;;;;;;-12.80;99.90;;;;;;4158154;28;20382;-52
2022/01/25 02:58:28;;;;;;;;;;;-12.90;99.90;;;;;;4157398;28;20369;-52
2022/01/25 03:00:29;;;;;;;;;;;-12.90;99.90;;;;;;4158768;28;19909;-51
2022/01/25 03:02:30;;;;;;;;;;;-12.90;99.90;;;;;;4157778;28;20617;-56
2022/01/25 03:04:31;;;;;;;;;;;-12.90;99.90;;;;;;4157881;28;19913;-52
2022/01/25 03:06:32;;;;;;;;;;;-13.00;99.90;;;;;;4156524;28;20491;-52
2022/01/25 03:08:33;;;;;;;;;;;-13.00;99.90;;;;;;4158636;28;19971;-52
2022/01/25 03:10:38;;;;;;;;;;;-13.10;99.90;;;;;;4156527;28;20332;-56
2022/01/25 03:12:45;;;;;;;;;;;-13.20;99.90;;;;;;4158535;28;20316;-55
2022/01/25 03:15:02;;;;;;;;;;;-13.20;99.90;;;;;;4140425;28;19983;-53
2022/01/25 03:17:08;;;;;;;;;;;-13.30;99.90;;;;;;4158040;28;19959;-55
2022/01/25 03:23:32;;;;;;;;;;;-13.20;99.90;;;;;;4156866;28;20472;-56
2022/01/25 03:25:33;;;;;;;;;;;-13.20;99.90;;;;;;4158105;28;19963;-54
2022/01/25 03:27:34;;;;;;;;;;;-13.20;99.90;;;;;;4157363;28;20348;-53
2022/01/25 03:29:35;;;;;;;;;;;-13.20;99.90;;;;;;4157306;28;19913;-53
2022/01/25 03:31:36;;;;;;;;;;;-13.20;99.90;;;;;;4157521;28;20047;-54
2022/01/25 03:33:37;;;;;;;;;;;-13.20;99.90;;;;;;4157017;28;19979;-51
2022/01/25 03:35:38;;;;;;;;;;;-13.20;99.90;;;;;;4158250;28;20340;-55
2022/01/25 03:37:39;;;;;;;;;;;-13.20;99.90;;;;;;4156430;28;19917;-57
2022/01/25 03:39:40;;;;;;;;;;;-13.10;99.90;;;;;;4158131;28;19917;-59
2022/01/25 03:41:41;;;;;;;;;;;-13.20;99.90;;;;;;4156945;28;20028;-56
2022/01/25 03:43:44;;;;;;;;;;;-13.10;99.90;;;;;;4158238;28;19917;-54
2022/01/25 03:45:58;;;;;;;;;;;-13.10;99.90;;;;;;4156895;28;19925;-55
2022/01/25 03:49:48;;;;;;;;;;;-13.10;99.90;;;;;;4157586;28;19925;-50
2022/01/25 03:50:20;;;;;;;;;;;-13.10;99.90;;;;;;4156909;28;19960;-53
2022/01/25 03:52:27;;;;;;;;;;;-13.10;99.90;;;;;;4157637;28;20635;-54
2022/01/25 03:54:28;;;;;;;;;;;-13.10;99.90;;;;;;4156928;28;19921;-56
2022/01/25 03:56:29;;;;;;;;;;;-13.20;99.90;;;;;;4157641;28;19909;-53
2022/01/25 03:58:30;;;;;;;;;;;-13.10;99.90;;;;;;4156141;28;19924;-54
2022/01/25 04:00:32;;;;;;;;;;;-13.20;99.90;;;;;;4157590;28;19917;-55
2022/01/25 04:02:34;;;;;;;;;;;-13.20;99.90;;;;;;4156679;28;20329;-54
2022/01/25 04:04:35;;;;;;;;;;;-13.30;99.90;;;;;;4157757;28;20415;-57
2022/01/25 04:06:38;;;;;;;;;;;-13.40;99.90;;;;;;4156424;28;19991;-53
2022/01/25 04:08:39;;;;;;;;;;;-13.40;99.90;;;;;;4157020;28;19921;-56
2022/01/25 04:10:40;;;;;;;;;;;-13.50;99.90;;;;;;4157516;28;20445;-54
2022/01/25 04:12:41;;;;;;;;;;;-13.60;99.90;;;;;;4156807;28;19917;-57
2022/01/25 04:14:42;;;;;;;;;;;-13.60;99.90;;;;;;4157144;28;19921;-56
2022/01/25 04:19:03;;;;;;;;;;;-13.70;99.90;;;;;;4157967;28;20337;-52
2022/01/25 04:21:22;;;;;;;;;;;-13.70;99.90;;;;;;4156699;28;19913;-52
2022/01/25 04:25:42;;;;;;;;;;;-13.80;99.90;;;;;;4156966;28;20925;-50
2022/01/25 04:27:43;;;;;;;;;;;-13.80;99.90;;;;;;4157399;28;19913;-51
2022/01/25 04:29:44;;;;;;;;;;;-13.80;99.90;;;;;;4156018;28;20365;-54
2022/01/25 04:31:45;;;;;;;;;;;-13.80;99.90;;;;;;4157449;28;19909;-54
2022/01/25 04:34:07;;;;;;;;;;;-13.80;99.90;;;;;;4156196;28;20339;-54
2022/01/25 04:49:53;;;;;;;;;;;-13.80;99.90;;;;;;4124172;28;19909;-53
2022/01/25 04:52:07;;;;;;;;;;;-13.80;99.90;;;;;;4139689;28;19913;-56
2022/01/25 04:58:20;;;;;;;;;;;-13.80;99.90;;;;;;4140329;28;20354;-54
2022/01/25 05:00:22;;;;;;;;;;;-13.80;99.90;;;;;;4142076;28;20344;-57
2022/01/25 05:04:53;;;;;;;;;;;-13.80;99.90;;;;;;4143156;28;19956;-54
2022/01/25 05:06:58;;;;;;;;;;;-13.70;99.90;;;;;;4143190;28;19940;-55
2022/01/25 05:09:11;;;;;;;;;;;-13.70;99.90;;;;;;4149367;28;20296;-55
2022/01/25 05:11:32;;;;;;;;;;;-13.70;99.90;;;;;;4158680;28;20357;-52
2022/01/25 05:16:07;;;;;;;;;;;-13.70;99.90;;;;;;4152178;28;20712;-57
2022/01/25 05:18:14;;;;;;;;;;;-13.70;99.90;;;;;;4143343;28;19917;-57
2022/01/25 05:22:34;;;;;;;;;;;-13.90;99.90;;;;;;4143868;28;19963;-56
2022/01/25 05:24:36;;;;;;;;;;;-13.90;99.90;;;;;;4141944;28;20644;-55
2022/01/25 05:26:37;;;;;;;;;;;-13.90;99.90;;;;;;4143308;28;20366;-53
2022/01/25 05:28:39;;;;;;;;;;;-13.90;99.90;;;;;;4142106;28;19916;-57
2022/01/25 05:30:40;;;;;;;;;;;-13.90;99.90;;;;;;4142811;28;19917;-53
2022/01/25 05:32:41;;;;;;;;;;;-13.90;99.90;;;;;;4142615;28;20354;-56
2022/01/25 05:34:42;;;;;;;;;;;-13.80;99.90;;;;;;4142203;28;20287;-54
2022/01/25 05:36:43;;;;;;;;;;;-13.80;99.90;;;;;;4142111;28;20647;-50
2022/01/25 05:38:46;;;;;;;;;;;-13.80;99.90;;;;;;4142097;28;19973;-56
2022/01/25 05:40:56;;;;;;;;;;;-13.80;99.90;;;;;;4143105;28;19959;-53
2022/01/25 05:45:39;;;;;;;;;;;-13.70;99.90;;;;;;4113984;28;20045;-53
2022/01/25 05:47:42;;;;;;;;;;;-13.60;99.90;;;;;;4140812;28;20013;-57
2022/01/25 05:49:43;;;;;;;;;;;-13.50;99.90;;;;;;4142238;28;19921;-54
2022/01/25 05:51:45;;;;;;;;;;;-13.60;99.90;;;;;;4141855;28;20373;-55
2022/01/25 05:53:46;;;;;;;;;;;-13.60;99.90;;;;;;4142109;28;20696;-60
2022/01/25 05:55:47;;;;;;;;;;;-13.70;99.90;;;;;;4148358;28;19984;-57
2022/01/25 05:57:48;;;;;;;;;;;-13.80;99.90;;;;;;4143150;28;19997;-57
2022/01/25 05:59:49;;;;;;;;;;;-13.80;99.90;;;;;;4141383;28;19913;-54
2022/01/25 06:01:50;;;;;;;;;;;-13.90;99.90;;;;;;4142552;28;19929;-53
2022/01/25 06:03:51;;;;;;;;;;;-13.90;99.90;;;;;;4141489;28;19920;-57
2022/01/25 06:05:52;;;;;;;;;;;-13.90;99.90;;;;;;4142623;28;19917;-55
2022/01/25 06:07:53;;;;;;;;;;;-13.90;99.90;;;;;;4141253;28;20325;-54
2022/01/25 06:09:54;;;;;;;;;;;-13.80;99.90;;;;;;4135052;28;19940;-55
2022/01/25 06:11:55;;;;;;;;;;;-13.80;99.90;;;;;;4131493;28;21807;-50
2022/01/25 06:13:56;;;;;;;;;;;-13.70;99.90;;;;;;4139256;28;19921;-55
2022/01/25 06:15:57;;;;;;;;;;;-13.60;99.90;;;;;;4141353;28;19925;-52
2022/01/25 06:17:58;;;;;;;;;;;-13.50;99.90;;;;;;4133417;28;19917;-60
2022/01/25 06:19:59;;;;;;;;;;;-13.40;99.90;;;;;;4137963;28;19917;-55
2022/01/25 06:22:00;;;;;;;;;;;-13.40;99.90;;;;;;4140877;28;20269;-53
2022/01/25 06:24:01;;;;;;;;;;;-13.40;99.90;;;;;;4142468;28;19997;-56
2022/01/25 06:26:03;;;;;;;;;;;-13.50;99.90;;;;;;4141187;28;19926;-52
2022/01/25 06:28:04;;;;;;;;;;;-13.50;99.90;;;;;;4141316;28;19921;-55
2022/01/25 06:30:07;;;;;;;;;;;-13.50;99.90;;;;;;4140420;28;20683;-56
2022/01/25 06:32:08;;;;;;;;;;;-13.60;99.90;;;;;;4142119;28;19914;-53
2022/01/25 06:34:08;;;;;;;;;;;-13.90;99.90;;;;;;4141625;28;19983;-57
2022/01/25 06:36:10;;;;;;;;;;;-13.90;99.90;;;;;;4142662;28;19957;-54
2022/01/25 06:38:11;;;;;;;;;;;-13.70;99.90;;;;;;4141050;28;20701;-53
2022/01/25 06:40:13;;;;;;;;;;;-13.60;99.90;;;;;;4142274;28;19914;-51
2022/01/25 06:42:14;;;;;;;;;;;-13.50;99.90;;;;;;4140124;28;19918;-58
2022/01/25 06:44:15;;;;;;;;;;;-13.50;99.90;;;;;;4143579;28;19956;-57
2022/01/25 06:46:16;;;;;;;;;;;-13.30;99.90;;;;;;4157393;28;19936;-54
2022/01/25 06:48:17;;;;;;;;;;;-13.20;99.90;;;;;;4158053;28;19914;-58
2022/01/25 06:50:18;;;;;;;;;;;-13.10;99.90;;;;;;4158962;28;19975;-53
2022/01/25 06:52:19;;;;;;;;;;;-13.10;99.90;;;;;;4157105;28;20360;-55
2022/01/25 06:54:20;;;;;;;;;;;-13.20;99.90;;;;;;4158518;28;19913;-54
2022/01/25 06:56:21;;;;;;;;;;;-13.20;99.90;;;;;;4156145;28;19917;-57
2022/01/25 06:58:22;;;;;;;;;;;-13.10;99.90;;;;;;4157869;28;20024;-53
2022/01/25 07:00:23;;;;;;;;;;;-12.90;99.90;;;;;;4157649;28;19917;-53
2022/01/25 07:02:24;;;;;;;;;;;-12.60;99.90;;;;;;4158036;28;19913;-58
2022/01/25 07:04:25;;;;;;;;;;;-12.60;99.90;;;;;;4157691;28;20264;-54
2022/01/25 07:06:26;;;;;;;;;;;-12.40;99.90;;;;;;4157504;28;19917;-54
2022/01/25 07:08:29;;;;;;;;;;;-12.20;99.90;;;;;;4139533;28;19983;-54
2022/01/25 07:10:30;;;;;;;;;;;-12.00;99.90;;;;;;4157814;28;19967;-54
2022/01/25 07:12:31;;;;;;;;;;;-12.00;99.90;;;;;;4156113;28;19920;-55
2022/01/25 07:14:32;;;;;;;;;;;-12.20;99.90;;;;;;4157496;28;19913;-53
2022/01/25 07:16:33;;;;;;;;;;;-11.80;99.90;;;;;;4157253;28;20344;-53
2022/01/25 07:18:34;;;;;;;;;;;-11.50;99.90;;;;;;4157183;28;19953;-57
2022/01/25 07:20:35;;;;;;;;;;;-11.40;99.90;;;;;;4158217;28;20039;-54
2022/01/25 07:22:36;;;;;;;;;;;-11.50;99.90;;;;;;4156433;28;19914;-54
2022/01/25 07:24:37;;;;;;;;;;;-11.70;99.90;;;;;;4158315;28;19948;-57
2022/01/25 07:26:38;;;;;;;;;;;-11.60;99.90;;;;;;4155280;28;20651;-59
2022/01/25 07:28:39;;;;;;;;;;;-11.50;99.90;;;;;;4157803;28;19916;-54
2022/01/25 07:30:40;;;;;;;;;;;-11.20;99.90;;;;;;4156038;28;21345;-56
2022/01/25 07:32:41;;;;;;;;;;;-10.70;99.90;;;;;;4157670;28;19917;-56
2022/01/25 07:34:42;;;;;;;;;;;-10.30;99.90;;;;;;4156545;28;19928;-57
2022/01/25 07:36:43;;;;;;;;;;;-10.00;99.90;;;;;;4157063;28;19913;-52
2022/01/25 07:38:44;;;;;;;;;;;-9.80;99.90;;;;;;4156666;28;19925;-54
2022/01/25 07:40:45;;;;;;;;;;;-9.60;99.90;;;;;;4157342;28;20673;-53
2022/01/25 07:42:46;;;;;;;;;;;-9.50;99.90;;;;;;4156982;28;19940;-56
2022/01/25 07:44:47;;;;;;;;;;;-9.50;99.90;;;;;;4157600;28;19929;-56
2022/01/25 07:46:48;;;;;;;;;;;-9.70;99.90;;;;;;4156888;28;20432;-57
2022/01/25 07:48:49;;;;;;;;;;;-9.70;99.90;;;;;;4161107;28;19921;-55
2022/01/25 07:50:50;;;;;;;;;;;-9.60;99.90;;;;;;4158047;28;19959;-53
2022/01/25 07:52:51;;;;;;;;;;;-9.40;99.90;;;;;;4166948;28;19999;-63
2022/01/25 07:54:52;;;;;;;;;;;-9.00;99.90;;;;;;4174638;28;19924;-54
2022/01/25 07:56:53;;;;;;;;;;;-8.70;99.90;;;;;;4173007;28;19915;-59
2022/01/25 07:58:54;;;;;;;;;;;-8.80;99.90;;;;;;4173508;28;19917;-56
2022/01/25 08:00:55;;;;;;;;;;;-9.30;99.70;;;;;;4172190;28;19966;-55
2022/01/25 08:02:56;;;;;;;;;;;-9.60;99.90;;;;;;4174385;28;20331;-49
2022/01/25 08:04:57;;;;;;;;;;;-10.30;99.90;;;;;;4173696;28;19909;-53
2022/01/25 08:06:58;;;;;;;;;;;-10.70;99.90;;;;;;4174819;28;19919;-53
2022/01/25 08:09:00;;;;;;;;;;;-10.90;99.90;;;;;;4172731;28;19913;-57
2022/01/25 08:11:01;;;;;;;;;;;-10.90;99.90;;;;;;4156963;28;19921;-53
2022/01/25 08:13:01;;;;;;;;;;;-10.60;99.90;;;;;;4150884;28;20006;-54
2022/01/25 08:15:04;;;;;;;;;;;-10.30;99.90;;;;;;4155646;28;19928;-57
2022/01/25 08:17:06;;;;;;;;;;;-10.20;99.90;;;;;;4151799;28;20166;-52
2022/01/25 08:19:07;;;;;;;;;;;-10.10;99.90;;;;;;4168197;28;19913;-57
2022/01/25 08:21:08;;;;;;;;;;;-10.00;99.90;;;;;;4173678;28;19966;-56
2022/01/25 08:23:09;;;;;;;;;;;-10.10;99.90;;;;;;4160295;28;19945;-51
2022/01/25 08:25:10;;;;;;;;;;;-10.30;99.90;;;;;;4157751;28;19959;-53
2022/01/25 08:27:11;;;;;;;;;;;-10.60;99.90;;;;;;4155255;28;19913;-53
2022/01/25 08:29:13;;;;;;;;;;;-10.70;99.90;;;;;;4157624;28;19921;-54
2022/01/25 08:31:13;;;;;;;;;;;-10.90;99.90;;;;;;4155740;28;19913;-52
2022/01/25 08:33:15;;;;;;;;;;;-10.90;99.90;;;;;;4157927;28;19917;-57
2022/01/25 08:35:16;;;;;;;;;;;-11.00;99.90;;;;;;4158652;28;19955;-48
2022/01/25 08:37:17;;;;;;;;;;;-11.10;99.90;;;;;;4160708;28;19913;-55
2022/01/25 08:39:18;;;;;;;;;;;-11.10;99.90;;;;;;4159356;28;19948;-54
2022/01/25 08:41:18;;;;;;;;;;;-11.20;99.90;;;;;;4159615;28;19917;-59
2022/01/25 08:43:19;;;;;;;;;;;-11.40;99.90;;;;;;4159309;28;19984;-60
2022/01/25 08:45:20;;;;;;;;;;;-11.40;99.90;;;;;;4162465;28;19975;-55
2022/01/25 08:47:22;;;;;;;;;;;-11.40;99.90;;;;;;4159164;28;19971;-55
2022/01/25 08:49:23;;;;;;;;;;;-11.40;99.90;;;;;;4143146;28;19959;-55
2022/01/25 08:51:24;;;;;;;;;;;-11.30;99.90;;;;;;4143369;28;20412;-53
2022/01/25 08:53:26;;;;;;;;;;;-11.30;99.90;;;;;;4151825;28;19917;-55
2022/01/25 08:55:27;;;;;;;;;;;-11.30;99.90;;;;;;4168858;28;20034;-52
2022/01/25 08:57:28;;;;;;;;;;;-11.30;99.90;;;;;;4150437;28;20473;-56
2022/01/25 08:59:29;;;;;;;;;;;-11.20;99.90;;;;;;4160175;28;20360;-56
2022/01/25 09:01:30;;;;;;;;;;;-11.10;99.90;;;;;;4158547;28;20016;-52
2022/01/25 09:03:31;;;;;;;;;;;-11.00;99.90;;;;;;4160190;28;19919;-51
2022/01/25 09:05:32;;;;;;;;;;;-10.90;99.90;;;;;;4159305;28;19935;-55
2022/01/25 09:07:32;;;;;;;;;;;-10.80;99.90;;;;;;4160034;28;19955;-56
2022/01/25 09:09:33;;;;;;;;;;;-10.80;99.90;;;;;;4158616;28;19916;-53
2022/01/25 09:11:35;;;;;;;;;;;-10.80;99.90;;;;;;4159641;28;19917;-57
2022/01/25 09:13:36;;;;;;;;;;;-10.70;99.90;;;;;;4158399;28;19975;-54
2022/01/25 09:15:37;;;;;;;;;;;-10.70;99.90;;;;;;4154919;28;20304;-53
2022/01/25 09:17:38;;;;;;;;;;;-10.70;99.90;;;;;;4125395;28;19916;-51
2022/01/25 09:19:39;;;;;;;;;;;-10.70;99.90;;;;;;4143391;28;19913;-58
2022/01/25 09:21:40;;;;;;;;;;;-10.60;99.90;;;;;;4143411;28;20381;-56
2022/01/25 09:23:41;;;;;;;;;;;-10.60;99.90;;;;;;4141084;28;20337;-51
2022/01/25 09:25:42;;;;;;;;;;;-10.60;99.90;;;;;;4143991;28;19959;-56
2022/01/25 09:27:43;;;;;;;;;;;-10.60;99.90;;;;;;4142006;28;19917;-52
2022/01/25 09:29:44;;;;;;;;;;;-10.60;99.90;;;;;;4159017;28;19917;-52
2022/01/25 09:31:45;;;;;;;;;;;-10.60;99.90;;;;;;4158284;28;20310;-52
2022/01/25 09:33:46;;;;;;;;;;;-10.60;99.90;;;;;;4160147;28;20390;-59
2022/01/25 09:35:47;;;;;;;;;;;-10.70;99.90;;;;;;4158818;28;20036;-55
2022/01/25 09:37:48;;;;;;;;;;;-10.70;99.90;;;;;;4159849;28;19913;-61
2022/01/25 09:39:49;;;;;;;;;;;-10.60;99.90;;;;;;4157620;28;19913;-48
2022/01/25 09:41:50;;;;;;;;;;;-10.60;99.90;;;;;;4158148;28;19920;-55
2022/01/25 09:43:51;;;;;;;;;;;-10.50;99.90;;;;;;4156699;28;19917;-58
2022/01/25 09:45:52;;;;;;;;;;;-10.40;99.90;;;;;;4141473;28;19926;-57
2022/01/25 09:47:53;;;;;;;;;;;-10.40;99.90;;;;;;4156992;28;19941;-55
2022/01/25 09:49:55;;;;;;;;;;;-10.40;99.90;;;;;;4159150;28;19913;-54
2022/01/25 09:51:56;;;;;;;;;;;-10.30;99.90;;;;;;4159492;28;19913;-53
2022/01/25 09:53:57;;;;;;;;;;;-10.20;99.90;;;;;;4139681;28;19917;-55
2022/01/25 09:55:58;;;;;;;;;;;-10.20;99.90;;;;;;4159007;28;20321;-56
2022/01/25 09:57:59;;;;;;;;;;;-10.20;99.90;;;;;;4142345;28;19960;-54
2022/01/25 10:00:00;;;;;;;;;;;-10.20;99.90;;;;;;4143340;28;20013;-55
2022/01/25 10:02:01;;;;;;;;;;;-10.10;99.90;;;;;;4157492;28;19917;-54
2022/01/25 10:04:04;;;;;;;;;;;-10.10;99.90;;;;;;4159729;28;20011;-55
2022/01/25 10:06:15;;;;;;;;;;;-10.00;99.90;;;;;;4144551;28;19914;-56
2022/01/25 10:08:17;;;;;;;;;;;-10.00;99.90;;;;;;4142170;28;19996;-56
2022/01/25 10:10:18;;;;;;;;;;;-10.00;99.90;;;;;;4140337;28;19921;-57
2022/01/25 10:12:19;;;;;;;;;;;-9.90;99.90;;;;;;4152418;28;20025;-57
2022/01/25 10:14:23;;;;;;;;;;;-9.80;99.90;;;;;;4155439;28;19921;-58
2022/01/25 10:16:32;;;;;;;;;;;-9.80;99.90;;;;;;4148047;28;19975;-54
2022/01/25 10:18:42;;;;;;;;;;;-9.80;99.90;;;;;;4146614;28;19929;-53
2022/01/25 10:20:44;;;;;;;;;;;-9.70;99.90;;;;;;4147053;28;19921;-52
2022/01/25 10:22:47;;;;;;;;;;;-9.60;99.90;;;;;;4157492;28;20377;-55
2022/01/25 10:24:48;;;;;;;;;;;-9.60;99.90;;;;;;4157087;28;19963;-53
2022/01/25 10:26:51;;;;;;;;;;;-9.60;99.90;;;;;;4157356;28;20342;-55
2022/01/25 10:28:53;;;;;;;;;;;-9.60;99.90;;;;;;4158161;28;19967;-59
2022/01/25 10:30:55;;;;;;;;;;;-9.50;99.90;;;;;;4158534;28;19913;-55
2022/01/25 10:32:58;;;;;;;;;;;-9.50;99.90;;;;;;4156929;28;19920;-59
2022/01/25 10:34:59;;;;;;;;;;;-9.40;99.90;;;;;;4158187;28;19963;-58
2022/01/25 10:37:06;;;;;;;;;;;-9.30;99.90;;;;;;4139995;28;19972;-59
2022/01/25 10:39:07;;;;;;;;;;;-9.30;99.90;;;;;;4157993;28;19917;-59
2022/01/25 10:41:12;;;;;;;;;;;-9.20;99.90;;;;;;4156776;28;20290;-57
2022/01/25 10:43:13;;;;;;;;;;;-9.20;99.90;;;;;;4158761;28;19917;-55
2022/01/25 10:45:17;;;;;;;;;;;-9.10;99.90;;;;;;4156905;28;19925;-57
2022/01/25 10:47:21;;;;;;;;;;;-9.20;99.90;;;;;;4158569;28;19913;-60
2022/01/25 10:49:22;;;;;;;;;;;-9.20;99.90;;;;;;4157139;28;19944;-57
2022/01/25 10:51:34;;;;;;;;;;;-9.10;99.90;;;;;;4159084;28;19920;-55
2022/01/25 10:53:35;;;;;;;;;;;-9.10;99.90;;;;;;4157003;28;20027;-49
2022/01/25 10:55:37;;;;;;;;;;;-9.00;99.90;;;;;;4156617;28;20393;-56
2022/01/25 10:57:38;;;;;;;;;;;-8.90;99.90;;;;;;4154255;28;19968;-53
2022/01/25 10:59:39;;;;;;;;;;;-8.90;99.90;;;;;;4157266;28;19909;-58
2022/01/25 11:01:45;;;;;;;;;;;-8.90;99.90;;;;;;4157135;28;20126;-55
2022/01/25 11:03:46;;;;;;;;;;;-8.90;99.90;;;;;;4157823;28;19913;-56
2022/01/25 11:05:47;;;;;;;;;;;-8.70;99.90;;;;;;4156810;28;20762;-55
2022/01/25 11:07:48;;;;;;;;;;;-8.60;99.90;;;;;;4155825;28;19921;-61
2022/01/25 11:09:50;;;;;;;;;;;-8.60;99.90;;;;;;4156504;28;19917;-60
2022/01/25 11:11:53;;;;;;;;;;;-8.50;99.90;;;;;;4156453;28;19917;-54
2022/01/25 11:13:56;;;;;;;;;;;-8.40;99.90;;;;;;4157330;28;19913;-57
2022/01/25 11:15:57;;;;;;;;;;;-8.30;99.90;;;;;;4155703;28;19975;-49
2022/01/25 11:17:58;;;;;;;;;;;-8.20;99.90;;;;;;4157867;28;19921;-55
2022/01/25 11:20:00;;;;;;;;;;;-8.20;99.90;;;;;;4157092;28;20027;-51
2022/01/25 11:22:02;;;;;;;;;;;-8.10;99.90;;;;;;4157560;28;19963;-55
2022/01/25 11:24:03;;;;;;;;;;;-8.10;99.90;;;;;;4156177;28;19916;-57
2022/01/25 11:26:06;;;;;;;;;;;-7.90;99.90;;;;;;4157259;28;19913;-57
2022/01/25 11:28:07;;;;;;;;;;;-7.80;99.90;;;;;;4156182;28;19964;-56
2022/01/25 11:30:09;;;;;;;;;;;-7.70;99.90;;;;;;4157883;28;19968;-53
2022/01/25 11:32:12;;;;;;;;;;;-7.80;99.90;;;;;;4155585;28;20359;-53
2022/01/25 11:34:15;;;;;;;;;;;-7.70;99.90;;;;;;4139849;28;20432;-56
2022/01/25 11:36:19;;;;;;;;;;;-7.70;99.90;;;;;;4155863;28;20570;-57
2022/01/25 11:38:34;;;;;;;;;;;-7.60;99.90;;;;;;4156858;28;20326;-53
2022/01/25 11:40:38;;;;;;;;;;;-7.60;99.90;;;;;;4156742;28;19995;-55
2022/01/25 11:42:46;;;;;;;;;;;-7.70;99.90;;;;;;4157635;28;19913;-52
2022/01/25 11:44:46;;;;;;;;;;;-7.80;99.90;;;;;;4156277;28;19929;-52
2022/01/25 11:46:50;;;;;;;;;;;-7.80;99.90;;;;;;4157350;28;19917;-52
2022/01/25 11:48:51;;;;;;;;;;;-7.80;99.90;;;;;;4157174;28;20032;-55
2022/01/25 11:50:52;;;;;;;;;;;-7.80;99.90;;;;;;4156969;28;19916;-55
2022/01/25 11:52:54;;;;;;;;;;;-7.80;99.90;;;;;;4157433;28;19923;-54
2022/01/25 11:55:14;;;;;;;;;;;-7.80;99.90;;;;;;4155298;28;19959;-54
2022/01/25 11:57:19;;;;;;;;;;;-7.90;99.90;;;;;;4157791;28;20707;-55
2022/01/25 11:59:20;;;;;;;;;;;-8.00;99.90;;;;;;4156142;28;19917;-53
2022/01/25 12:01:23;;;;;;;;;;;-8.00;99.90;;;;;;4157866;28;19996;-55
2022/01/25 12:03:29;;;;;;;;;;;-8.10;99.90;;;;;;4156040;28;19921;-51
2022/01/25 12:05:32;;;;;;;;;;;-8.10;99.90;;;;;;4156944;28;19972;-53
2022/01/25 12:07:39;;;;;;;;;;;-8.10;99.90;;;;;;4155870;28;20411;-54
2022/01/25 12:09:44;;;;;;;;;;;-8.00;99.90;;;;;;4160836;28;19917;-54
2022/01/25 12:11:50;;;;;;;;;;;-8.00;99.90;;;;;;4159627;28;19983;-53
2022/01/25 12:14:09;;;;;;;;;;;-8.00;99.90;;;;;;4161159;28;19959;-54
2022/01/25 12:16:26;;;;;;;;;;;-8.00;99.90;;;;;;4150733;28;19928;-60
2022/01/25 12:18:46;;;;;;;;;;;-8.00;99.90;;;;;;4156619;28;19987;-52
2022/01/25 12:20:47;;;;;;;;;;;-8.00;99.90;;;;;;4150030;28;19913;-52
2022/01/25 12:23:03;;;;;;;;;;;-7.90;99.90;;;;;;4158687;28;19994;-57
2022/01/25 12:25:23;;;;;;;;;;;-7.90;99.90;;;;;;4157510;28;20419;-57
2022/01/25 12:27:35;;;;;;;;;;;-7.90;99.90;;;;;;4160065;28;19913;-56
2022/01/25 12:29:40;;;;;;;;;;;-7.80;99.90;;;;;;4158029;28;20320;-57
2022/01/25 12:31:44;;;;;;;;;;;-7.90;99.90;;;;;;4156439;28;19975;-56
2022/01/25 12:33:46;;;;;;;;;;;-7.90;99.90;;;;;;4158226;28;19913;-57
2022/01/25 12:35:50;;;;;;;;;;;-7.90;99.90;;;;;;4159937;28;19917;-60
2022/01/25 12:37:55;;;;;;;;;;;-7.90;99.90;;;;;;4159354;28;20318;-55
2022/01/25 12:40:16;;;;;;;;;;;-7.90;99.90;;;;;;4160497;28;20447;-50
2022/01/25 12:42:17;;;;;;;;;;;-7.90;99.90;;;;;;4158238;28;19971;-52
2022/01/25 12:44:20;;;;;;;;;;;-7.90;99.90;;;;;;4164834;28;19913;-58
2022/01/25 12:46:21;;;;;;;;;;;-7.90;99.90;;;;;;4167139;28;19948;-48
2022/01/25 12:48:27;;;;;;;;;;;-7.90;99.90;;;;;;4165490;28;20012;-53
2022/01/25 12:50:28;;;;;;;;;;;-7.80;99.90;;;;;;4168396;28;19909;-57
2022/01/25 12:52:29;;;;;;;;;;;-7.80;99.90;;;;;;4159377;28;19917;-57
2022/01/25 12:54:35;;;;;;;;;;;-7.80;99.90;;;;;;4157941;28;19913;-54
2022/01/25 12:56:41;;;;;;;;;;;-7.70;99.90;;;;;;4159726;28;20036;-57
2022/01/25 12:58:43;;;;;;;;;;;-7.70;99.90;;;;;;4158876;28;20254;-57
2022/01/25 13:00:45;;;;;;;;;;;-7.70;99.90;;;;;;4158893;28;19978;-54
2022/01/25 13:02:46;;;;;;;;;;;-7.70;99.90;;;;;;4159093;28;20323;-53
2022/01/25 13:04:47;;;;;;;;;;;-7.70;99.90;;;;;;4158573;28;19924;-58
2022/01/25 13:06:51;;;;;;;;;;;-7.70;99.90;;;;;;4158989;28;20012;-59
2022/01/25 13:09:03;;;;;;;;;;;-7.70;99.90;;;;;;4158807;28;19917;-58
2022/01/25 13:11:19;;;;;;;;;;;-7.70;99.90;;;;;;4159522;28;19913;-54
2022/01/25 13:13:30;;;;;;;;;;;-7.70;99.90;;;;;;4158004;28;19917;-53
2022/01/25 13:17:44;;;;;;;;;;;-7.70;99.90;;;;;;4158711;28;19929;-57
2022/01/25 13:19:48;;;;;;;;;;;-7.60;99.90;;;;;;4156989;28;19917;-55
2022/01/25 13:21:50;;;;;;;;;;;-7.50;99.90;;;;;;4170190;28;19982;-55
2022/01/25 13:23:52;;;;;;;;;;;-7.40;99.90;;;;;;4176447;28;19966;-61
2022/01/25 13:26:15;;;;;;;;;;;-7.50;99.90;;;;;;4164677;28;19917;-58
2022/01/25 13:28:32;;;;;;;;;;;-7.50;99.90;;;;;;4172146;28;19917;-53
2022/01/25 13:32:45;;;;;;;;;;;-7.50;99.90;;;;;;4159165;28;19917;-52
2022/01/25 13:35:04;;;;;;;;;;;-7.50;99.90;;;;;;4158854;28;20933;-56